createdAt,value
2017-11-21T00:00:48.915Z,43.99
2017-11-21T00:01:58.361Z,43.9
2017-11-21T00:03:07.285Z,43.99
2017-11-21T00:04:16.198Z,43.9
2017-11-21T00:05:25.643Z,43.99
2017-11-21T00:06:34.821Z,43.99
2017-11-21T00:07:43.474Z,43.99
2017-11-21T00:08:52.128Z,43.9
2017-11-21T00:10:01.037Z,43.8
2017-11-21T00:11:09.690Z,43.99
2017-11-21T00:12:18.885Z,43.99
2017-11-21T00:13:28.362Z,43.71
2017-11-21T00:14:37.287Z,43.9
2017-11-21T00:15:46.476Z,43.8
2017-11-21T00:16:55.391Z,43.8
2017-11-21T00:18:04.588Z,43.8
2017-11-21T00:19:13.525Z,43.8
2017-11-21T00:20:22.714Z,43.71
2017-11-21T00:21:31.383Z,43.8
2017-11-21T00:22:40.307Z,43.8
2017-11-21T00:23:50.017Z,43.8
2017-11-21T00:24:58.996Z,43.71
2017-11-21T00:26:08.439Z,43.71
2017-11-21T00:27:17.634Z,43.71
2017-11-21T00:28:26.580Z,43.71
2017-11-21T00:29:35.525Z,43.71
2017-11-21T00:30:44.701Z,43.8
2017-11-21T00:31:53.882Z,43.71
2017-11-21T00:33:03.078Z,43.8
2017-11-21T00:34:12.797Z,43.61
2017-11-21T00:35:21.728Z,43.8
2017-11-21T00:36:30.677Z,43.71
2017-11-21T00:37:39.591Z,43.9
2017-11-21T00:38:48.507Z,43.8
2017-11-21T00:39:57.945Z,43.71
2017-11-21T00:41:07.404Z,43.9
2017-11-21T00:42:16.589Z,43.61
2017-11-21T00:43:26.031Z,43.61
2017-11-21T00:44:35.221Z,43.61
2017-11-21T00:45:44.150Z,43.71
2017-11-21T00:46:53.085Z,43.71
2017-11-21T00:48:01.728Z,43.8
2017-11-21T00:49:11.188Z,43.71
2017-11-21T00:50:20.108Z,43.71
2017-11-21T00:51:29.012Z,43.8
2017-11-21T00:52:37.936Z,43.8
2017-11-21T00:53:47.117Z,43.61
2017-11-21T00:54:56.294Z,43.8
2017-11-21T00:56:06.001Z,43.8
2017-11-21T00:57:15.220Z,43.99
2017-11-21T00:58:24.141Z,43.82
2017-11-21T00:59:33.061Z,43.8
2017-11-21T01:00:41.710Z,43.82
2017-11-21T01:01:50.369Z,44.19
2017-11-21T01:02:59.082Z,43.99
2017-11-21T01:04:08.271Z,43.8
2017-11-21T01:05:17.740Z,43.82
2017-11-21T01:06:26.649Z,44.28
2017-11-21T01:07:35.833Z,44.09
2017-11-21T01:08:44.840Z,43.8
2017-11-21T01:09:54.045Z,44.09
2017-11-21T01:11:03.246Z,44.09
2017-11-21T01:12:12.425Z,44.09
2017-11-21T01:13:21.652Z,43.99
2017-11-21T01:14:30.305Z,43.99
2017-11-21T01:15:39.212Z,43.99
2017-11-21T01:16:48.127Z,44.09
2017-11-21T01:17:57.358Z,43.9
2017-11-21T01:19:06.540Z,44.09
2017-11-21T01:20:15.456Z,44.09
2017-11-21T01:21:24.385Z,44.09
2017-11-21T01:22:33.839Z,43.99
2017-11-21T01:23:42.753Z,43.99
2017-11-21T01:24:51.410Z,44.09
2017-11-21T01:26:00.330Z,43.99
2017-11-21T01:27:09.513Z,44.09
2017-11-21T01:28:18.705Z,44.09
2017-11-21T01:29:27.907Z,43.99
2017-11-21T01:30:36.832Z,44.09
2017-11-21T01:31:46.283Z,43.99
2017-11-21T01:32:55.193Z,43.99
2017-11-21T01:34:04.373Z,43.99
2017-11-21T01:35:13.576Z,43.99
2017-11-21T01:36:23.195Z,43.99
2017-11-21T01:37:32.382Z,43.99
2017-11-21T01:38:42.358Z,44.09
2017-11-21T01:39:51.034Z,43.99
2017-11-21T01:40:59.697Z,44.02
2017-11-21T01:42:08.878Z,43.99
2017-11-21T01:43:17.812Z,43.99
2017-11-21T01:44:26.725Z,44.09
2017-11-21T01:45:35.640Z,43.99
2017-11-21T01:46:44.835Z,43.99
2017-11-21T01:47:54.013Z,43.9
2017-11-21T01:49:02.949Z,43.99
2017-11-21T01:50:11.910Z,44.09
2017-11-21T01:51:20.837Z,44.09
2017-11-21T01:52:29.748Z,44.09
2017-11-21T01:53:38.921Z,43.9
2017-11-21T01:54:47.842Z,43.9
2017-11-21T01:55:57.287Z,44.09
2017-11-21T01:57:06.471Z,43.9
2017-11-21T01:58:15.386Z,43.9
2017-11-21T01:59:25.094Z,43.9
2017-11-21T02:00:33.747Z,43.9
2017-11-21T02:01:42.672Z,44.02
2017-11-21T02:02:51.329Z,43.9
2017-11-21T02:04:00.255Z,43.99
2017-11-21T02:05:09.164Z,43.99
2017-11-21T02:06:18.353Z,43.99
2017-11-21T02:07:27.548Z,43.71
2017-11-21T02:08:36.998Z,44.28
2017-11-21T02:09:45.926Z,43.99
2017-11-21T02:10:54.581Z,43.71
2017-11-21T02:12:04.033Z,43.9
2017-11-21T02:13:13.226Z,43.9
2017-11-21T02:14:22.148Z,43.9
2017-11-21T02:15:30.811Z,43.99
2017-11-21T02:16:40.006Z,44.19
2017-11-21T02:17:49.755Z,44.28
2017-11-21T02:18:58.948Z,44.28
2017-11-21T02:20:07.935Z,44.28
2017-11-21T02:21:16.859Z,44.19
2017-11-21T02:22:25.777Z,44.28
2017-11-21T02:23:35.517Z,44.19
2017-11-21T02:24:44.958Z,44.28
2017-11-21T02:25:54.142Z,44.28
2017-11-21T02:27:02.782Z,43.8
2017-11-21T02:28:11.699Z,44.28
2017-11-21T02:29:21.407Z,44.28
2017-11-21T02:30:30.616Z,44.19
2017-11-21T02:31:39.283Z,43.9
2017-11-21T02:32:48.461Z,44.02
2017-11-21T02:33:57.389Z,43.99
2017-11-21T02:35:06.840Z,43.8
2017-11-21T02:36:16.292Z,43.9
2017-11-21T02:37:25.223Z,43.8
2017-11-21T02:38:34.427Z,43.99
2017-11-21T02:39:43.870Z,44.19
2017-11-21T02:40:53.577Z,43.99
2017-11-21T02:42:03.284Z,44.09
2017-11-21T02:43:12.723Z,43.99
2017-11-21T02:44:21.907Z,43.99
2017-11-21T02:45:30.825Z,43.9
2017-11-21T02:46:40.000Z,44.09
2017-11-21T02:47:49.442Z,44.28
2017-11-21T02:48:58.880Z,44.28
2017-11-21T02:50:08.056Z,43.99
2017-11-21T02:51:17.525Z,44.09
2017-11-21T02:52:26.454Z,43.99
2017-11-21T02:53:35.622Z,43.9
2017-11-21T02:54:45.349Z,43.99
2017-11-21T02:55:54.529Z,43.9
2017-11-21T02:57:03.190Z,44.09
2017-11-21T02:58:11.841Z,43.9
2017-11-21T02:59:20.758Z,44.09
2017-11-21T03:00:29.667Z,44.09
2017-11-21T03:01:38.590Z,43.99
2017-11-21T03:02:47.530Z,43.9
2017-11-21T03:03:56.724Z,44.09
2017-11-21T03:05:05.385Z,43.9
2017-11-21T03:06:14.832Z,43.99
2017-11-21T03:07:23.552Z,43.9
2017-11-21T03:08:32.730Z,43.9
2017-11-21T03:09:41.635Z,44.09
2017-11-21T03:10:50.847Z,44.28
2017-11-21T03:11:59.766Z,44.09
2017-11-21T03:13:09.708Z,43.9
2017-11-21T03:14:18.892Z,44.38
2017-11-21T03:15:28.083Z,43.99
2017-11-21T03:16:38.047Z,43.9
2017-11-21T03:17:47.018Z,43.9
2017-11-21T03:18:56.773Z,43.9
2017-11-21T03:20:06.227Z,43.8
2017-11-21T03:21:15.144Z,43.9
2017-11-21T03:22:24.339Z,43.99
2017-11-21T03:23:32.995Z,43.99
2017-11-21T03:24:41.925Z,43.99
2017-11-21T03:25:50.590Z,43.9
2017-11-21T03:26:59.516Z,44.38
2017-11-21T03:28:08.755Z,43.9
2017-11-21T03:29:17.886Z,43.99
2017-11-21T03:30:27.360Z,44.09
2017-11-21T03:31:36.286Z,43.99
2017-11-21T03:32:45.734Z,44.38
2017-11-21T03:33:54.936Z,43.9
2017-11-21T03:35:04.123Z,44.28
2017-11-21T03:36:13.052Z,44.09
2017-11-21T03:37:22.519Z,44.28
2017-11-21T03:38:31.708Z,43.99
2017-11-21T03:39:40.630Z,43.99
2017-11-21T03:40:49.814Z,43.99
2017-11-21T03:41:58.489Z,43.9
2017-11-21T03:43:07.683Z,44.4
2017-11-21T03:44:16.858Z,43.99
2017-11-21T03:45:26.034Z,44.09
2017-11-21T03:46:35.486Z,44.28
2017-11-21T03:47:44.696Z,43.99
2017-11-21T03:48:53.375Z,44.19
2017-11-21T03:50:02.840Z,43.9
2017-11-21T03:51:12.035Z,43.99
2017-11-21T03:52:20.952Z,43.9
2017-11-21T03:53:30.141Z,43.92
2017-11-21T03:54:38.806Z,43.92
2017-11-21T03:55:48.001Z,44.02
2017-11-21T03:56:57.984Z,44.02
2017-11-21T03:58:06.911Z,44.38
2017-11-21T03:59:22.083Z,44.4
2017-11-21T04:00:31.016Z,44.02
2017-11-21T04:01:40.196Z,44.31
2017-11-21T04:02:49.650Z,44.21
2017-11-21T04:03:58.824Z,44.19
2017-11-21T04:05:07.737Z,44.19
2017-11-21T04:06:16.936Z,43.99
2017-11-21T04:07:25.605Z,44.02
2017-11-21T04:08:34.256Z,44.02
2017-11-21T04:09:43.167Z,44.21
2017-11-21T04:10:52.339Z,44.49
2017-11-21T04:12:01.255Z,44.11
2017-11-21T04:13:10.464Z,44.59
2017-11-21T04:14:19.928Z,44.02
2017-11-21T04:15:28.572Z,44.21
2017-11-21T04:16:37.997Z,44.4
2017-11-21T04:17:46.641Z,44.09
2017-11-21T04:18:55.825Z,44.11
2017-11-21T04:20:04.486Z,44.02
2017-11-21T04:21:13.400Z,44.02
2017-11-21T04:22:22.058Z,44.02
2017-11-21T04:23:30.965Z,44.02
2017-11-21T04:24:39.620Z,44.02
2017-11-21T04:25:48.268Z,44.31
2017-11-21T04:26:57.723Z,44.02
2017-11-21T04:28:07.169Z,44.02
2017-11-21T04:29:16.602Z,43.99
2017-11-21T04:30:25.502Z,44.11
2017-11-21T04:31:34.668Z,44.02
2017-11-21T04:32:43.314Z,43.99
2017-11-21T04:33:52.217Z,44.4
2017-11-21T04:35:01.452Z,44.02
2017-11-21T04:36:10.884Z,43.99
2017-11-21T04:37:20.329Z,44.02
2017-11-21T04:38:29.230Z,44.11
2017-11-21T04:39:38.924Z,44.11
2017-11-21T04:40:48.091Z,44.11
2017-11-21T04:41:57.091Z,44.02
2017-11-21T04:43:05.732Z,44.11
2017-11-21T04:44:15.180Z,44.11
2017-11-21T04:45:24.650Z,44.02
2017-11-21T04:46:33.575Z,44.02
2017-11-21T04:47:42.473Z,44.11
2017-11-21T04:48:51.905Z,44.02
2017-11-21T04:50:00.809Z,44.02
2017-11-21T04:51:09.455Z,44.11
2017-11-21T04:52:19.137Z,44.02
2017-11-21T04:53:27.790Z,44.09
2017-11-21T04:54:36.433Z,44.11
2017-11-21T04:55:45.894Z,44.11
2017-11-21T04:56:54.804Z,44.28
2017-11-21T04:58:03.986Z,44.02
2017-11-21T04:59:13.153Z,44.09
2017-11-21T05:00:22.695Z,44.21
2017-11-21T05:01:31.873Z,44.21
2017-11-21T05:02:40.776Z,44.21
2017-11-21T05:03:49.682Z,44.21
2017-11-21T05:04:58.594Z,44.11
2017-11-21T05:06:07.534Z,44.11
2017-11-21T05:07:16.972Z,44.02
2017-11-21T05:08:25.910Z,44.02
2017-11-21T05:09:35.102Z,44.21
2017-11-21T05:10:44.016Z,44.31
2017-11-21T05:11:52.933Z,44.21
2017-11-21T05:13:01.590Z,44.21
2017-11-21T05:14:10.485Z,44.21
2017-11-21T05:15:19.647Z,44.11
2017-11-21T05:16:29.074Z,44.31
2017-11-21T05:17:38.557Z,44.11
2017-11-21T05:18:47.461Z,44.19
2017-11-21T05:19:56.104Z,44.11
2017-11-21T05:21:05.271Z,44.02
2017-11-21T05:22:14.175Z,44.21
2017-11-21T05:23:23.123Z,44.21
2017-11-21T05:24:32.051Z,44.21
2017-11-21T05:25:41.751Z,44.19
2017-11-21T05:26:50.932Z,44.11
2017-11-21T05:28:00.108Z,44.11
2017-11-21T05:29:09.011Z,44.21
2017-11-21T05:30:18.605Z,44.21
2017-11-21T05:31:27.795Z,44.11
2017-11-21T05:32:36.717Z,44.11
2017-11-21T05:33:45.903Z,44.21
2017-11-21T05:34:55.080Z,44.11
2017-11-21T05:36:03.987Z,44.21
2017-11-21T05:37:12.914Z,44.21
2017-11-21T05:38:22.360Z,44.19
2017-11-21T05:39:31.792Z,44.21
2017-11-21T05:40:40.435Z,44.21
2017-11-21T05:41:49.882Z,44.11
2017-11-21T05:42:59.053Z,44.21
2017-11-21T05:44:07.966Z,44.11
2017-11-21T05:45:16.638Z,44.21
2017-11-21T05:46:25.578Z,44.02
2017-11-21T05:47:34.495Z,44.11
2017-11-21T05:48:43.446Z,44.21
2017-11-21T05:49:52.642Z,44.19
2017-11-21T05:51:01.553Z,44.02
2017-11-21T05:52:11.002Z,44.11
2017-11-21T05:53:20.165Z,44.11
2017-11-21T05:54:29.077Z,43.92
2017-11-21T05:55:37.992Z,44.21
2017-11-21T05:56:47.454Z,43.92
2017-11-21T05:57:56.663Z,44.11
2017-11-21T05:59:05.605Z,43.73
2017-11-21T06:00:14.767Z,43.73
2017-11-21T06:01:23.677Z,43.92
2017-11-21T06:02:32.842Z,43.65
2017-11-21T06:03:41.746Z,43.46
2017-11-21T06:04:50.924Z,43.55
2017-11-21T06:06:00.091Z,43.55
2017-11-21T06:07:09.262Z,43.27
2017-11-21T06:08:18.431Z,42.97
2017-11-21T06:09:27.349Z,42.88
2017-11-21T06:10:36.256Z,42.69
2017-11-21T06:11:45.677Z,43.1
2017-11-21T06:12:55.128Z,42.71
2017-11-21T06:14:04.315Z,42.8
2017-11-21T06:15:13.776Z,42.8
2017-11-21T06:16:22.724Z,42.8
2017-11-21T06:17:31.918Z,42.61
2017-11-21T06:18:41.107Z,42.42
2017-11-21T06:19:50.723Z,42.52
2017-11-21T06:21:00.157Z,42.32
2017-11-21T06:22:09.070Z,42.32
2017-11-21T06:23:17.972Z,42.15
2017-11-21T06:24:26.649Z,42.35
2017-11-21T06:25:35.574Z,42.25
2017-11-21T06:26:44.751Z,41.96
2017-11-21T06:27:53.931Z,41.96
2017-11-21T06:29:03.102Z,42.05
2017-11-21T06:30:12.284Z,42.15
2017-11-21T06:31:21.463Z,41.86
2017-11-21T06:32:30.666Z,41.77
2017-11-21T06:33:39.857Z,41.78
2017-11-21T06:34:49.303Z,41.78
2017-11-21T06:35:58.481Z,41.88
2017-11-21T06:37:07.430Z,41.6
2017-11-21T06:38:16.318Z,41.69
2017-11-21T06:39:25.503Z,41.88
2017-11-21T06:40:34.713Z,41.6
2017-11-21T06:41:43.657Z,41.6
2017-11-21T06:42:52.822Z,41.3
2017-11-21T06:44:02.548Z,41.2
2017-11-21T06:45:12.019Z,41.2
2017-11-21T06:46:21.750Z,41.3
2017-11-21T06:47:30.932Z,41.33
2017-11-21T06:48:40.115Z,41.33
2017-11-21T06:49:49.557Z,41.33
2017-11-21T06:50:58.471Z,41.23
2017-11-21T06:52:07.650Z,41.23
2017-11-21T06:53:16.582Z,41.23
2017-11-21T06:54:25.487Z,41.52
2017-11-21T06:55:34.412Z,41.33
2017-11-21T06:56:43.609Z,41.33
2017-11-21T06:57:53.057Z,41.52
2017-11-21T06:59:02.496Z,41.42
2017-11-21T07:00:11.701Z,42
2017-11-21T07:01:21.192Z,41.81
2017-11-21T07:02:30.380Z,41.81
2017-11-21T07:03:40.089Z,41.61
2017-11-21T07:04:49.007Z,41.91
2017-11-21T07:05:58.190Z,41.91
2017-11-21T07:07:07.106Z,42
2017-11-21T07:08:16.298Z,41.81
2017-11-21T07:09:25.740Z,42.1
2017-11-21T07:10:34.396Z,42.29
2017-11-21T07:11:43.567Z,42.39
2017-11-21T07:12:52.751Z,42
2017-11-21T07:14:01.697Z,41.98
2017-11-21T07:15:10.618Z,42.29
2017-11-21T07:16:19.527Z,42.27
2017-11-21T07:17:28.438Z,42.36
2017-11-21T07:18:37.608Z,41.98
2017-11-21T07:19:46.533Z,42.27
2017-11-21T07:20:55.745Z,42.46
2017-11-21T07:22:04.672Z,42.36
2017-11-21T07:23:13.586Z,42.56
2017-11-21T07:24:22.518Z,42.46
2017-11-21T07:25:31.709Z,42.46
2017-11-21T07:26:40.874Z,42.56
2017-11-21T07:27:49.781Z,42.85
2017-11-21T07:28:58.702Z,42.85
2017-11-21T07:30:08.140Z,42.75
2017-11-21T07:31:17.067Z,42.85
2017-11-21T07:32:26.514Z,43.14
2017-11-21T07:33:36.251Z,42.75
2017-11-21T07:34:44.911Z,42.75
2017-11-21T07:35:54.109Z,43.33
2017-11-21T07:37:03.569Z,42.85
2017-11-21T07:38:12.904Z,43.33
2017-11-21T07:39:21.584Z,43.21
2017-11-21T07:40:30.573Z,43.41
2017-11-21T07:41:39.758Z,43.6
2017-11-21T07:42:48.674Z,43.7
2017-11-21T07:43:57.855Z,43.7
2017-11-21T07:45:07.303Z,43.7
2017-11-21T07:46:16.219Z,43.6
2017-11-21T07:47:25.679Z,43.6
2017-11-21T07:48:34.655Z,43.6
2017-11-21T07:49:44.607Z,43.6
2017-11-21T07:50:53.531Z,43.6
2017-11-21T07:52:02.463Z,43.98
2017-11-21T07:53:11.661Z,44.08
2017-11-21T07:54:20.886Z,43.79
2017-11-21T07:55:30.067Z,43.79
2017-11-21T07:56:39.246Z,43.7
2017-11-21T07:57:47.897Z,43.89
2017-11-21T07:58:56.806Z,44.18
2017-11-21T08:00:06.809Z,44.18
2017-11-21T08:01:15.996Z,44.08
2017-11-21T08:02:25.451Z,44.08
2017-11-21T08:03:34.889Z,44.18
2017-11-21T08:04:44.349Z,43.98
2017-11-21T08:05:53.293Z,44.18
2017-11-21T08:07:01.941Z,44.37
2017-11-21T08:08:11.133Z,44.35
2017-11-21T08:09:20.070Z,44.06
2017-11-21T08:10:28.989Z,44.15
2017-11-21T08:11:38.167Z,44.18
2017-11-21T08:12:47.104Z,44.06
2017-11-21T08:13:56.562Z,44.15
2017-11-21T08:15:05.783Z,44.15
2017-11-21T08:16:15.248Z,44.15
2017-11-21T08:17:24.175Z,44.25
2017-11-21T08:18:33.113Z,44.25
2017-11-21T08:19:42.299Z,44.25
2017-11-21T08:20:52.044Z,44.35
2017-11-21T08:22:00.984Z,44.35
2017-11-21T08:23:10.159Z,44.45
2017-11-21T08:24:19.081Z,44.54
2017-11-21T08:25:28.284Z,44.45
2017-11-21T08:26:36.958Z,44.54
2017-11-21T08:27:45.879Z,44.73
2017-11-21T08:28:55.057Z,44.83
2017-11-21T08:30:03.976Z,44.93
2017-11-21T08:31:13.160Z,44.73
2017-11-21T08:32:22.625Z,44.73
2017-11-21T08:33:31.819Z,44.64
2017-11-21T08:34:40.472Z,44.54
2017-11-21T08:35:49.375Z,44.64
2017-11-21T08:36:58.566Z,44.64
2017-11-21T08:38:07.761Z,44.64
2017-11-21T08:39:16.677Z,44.64
2017-11-21T08:40:26.161Z,44.64
2017-11-21T08:41:35.358Z,44.64
2017-11-21T08:42:44.795Z,44.45
2017-11-21T08:43:53.728Z,44.54
2017-11-21T08:45:03.198Z,44.54
2017-11-21T08:46:12.646Z,44.45
2017-11-21T08:47:22.108Z,44.64
2017-11-21T08:48:31.297Z,44.54
2017-11-21T08:49:40.738Z,44.25
2017-11-21T08:50:49.729Z,44.25
2017-11-21T08:51:58.929Z,44.54
2017-11-21T08:53:08.398Z,45.03
2017-11-21T08:54:17.579Z,44.64
2017-11-21T08:55:26.806Z,44.54
2017-11-21T08:56:35.539Z,44.73
2017-11-21T08:57:44.983Z,44.64
2017-11-21T08:58:54.163Z,45.03
2017-11-21T09:00:03.614Z,45.03
2017-11-21T09:01:12.268Z,44.73
2017-11-21T09:02:21.714Z,45.03
2017-11-21T09:03:30.380Z,45.03
2017-11-21T09:04:39.557Z,44.83
2017-11-21T09:05:48.743Z,44.45
2017-11-21T09:06:57.654Z,44.45
2017-11-21T09:08:06.571Z,44.54
2017-11-21T09:09:15.236Z,44.45
2017-11-21T09:10:24.420Z,44.54
2017-11-21T09:11:33.613Z,44.93
2017-11-21T09:12:42.534Z,44.64
2017-11-21T09:13:51.706Z,44.35
2017-11-21T09:15:00.373Z,44.93
2017-11-21T09:16:09.840Z,44.35
2017-11-21T09:17:18.773Z,44.45
2017-11-21T09:18:27.942Z,44.45
2017-11-21T09:19:37.174Z,44.83
2017-11-21T09:20:46.351Z,44.35
2017-11-21T09:21:55.264Z,44.64
2017-11-21T09:23:04.453Z,44.54
2017-11-21T09:24:13.640Z,44.54
2017-11-21T09:25:23.341Z,45.03
2017-11-21T09:26:32.530Z,44.64
2017-11-21T09:27:41.712Z,44.93
2017-11-21T09:28:50.625Z,44.35
2017-11-21T09:29:59.295Z,44.93
2017-11-21T09:31:08.270Z,44.93
2017-11-21T09:32:17.457Z,44.54
2017-11-21T09:33:26.647Z,44.73
2017-11-21T09:34:35.831Z,44.64
2017-11-21T09:35:44.760Z,44.45
2017-11-21T09:36:53.940Z,44.35
2017-11-21T09:38:03.374Z,44.54
2017-11-21T09:39:12.842Z,44.54
2017-11-21T09:40:21.481Z,44.54
2017-11-21T09:41:30.413Z,44.64
2017-11-21T09:42:39.323Z,44.64
2017-11-21T09:43:48.492Z,44.64
2017-11-21T09:44:57.685Z,44.64
2017-11-21T09:46:06.621Z,44.64
2017-11-21T09:47:15.549Z,44.54
2017-11-21T09:48:24.460Z,44.54
2017-11-21T09:49:33.921Z,44.64
2017-11-21T09:50:42.576Z,44.54
2017-11-21T09:51:51.235Z,44.54
2017-11-21T09:53:00.689Z,44.54
2017-11-21T09:54:09.874Z,44.54
2017-11-21T09:55:19.085Z,44.54
2017-11-21T09:56:28.264Z,44.54
2017-11-21T09:57:37.447Z,44.54
2017-11-21T09:58:46.394Z,44.64
2017-11-21T09:59:55.050Z,44.45
2017-11-21T10:01:03.705Z,44.45
2017-11-21T10:02:13.185Z,44.64
2017-11-21T10:03:22.382Z,44.54
2017-11-21T10:04:31.299Z,44.54
2017-11-21T10:05:40.545Z,44.64
2017-11-21T10:06:49.746Z,44.64
2017-11-21T10:07:59.466Z,44.45
2017-11-21T10:09:08.909Z,44.73
2017-11-21T10:10:17.825Z,44.64
2017-11-21T10:11:26.473Z,44.45
2017-11-21T10:12:35.908Z,44.54
2017-11-21T10:13:45.352Z,44.54
2017-11-21T10:14:54.532Z,44.54
2017-11-21T10:16:03.970Z,44.45
2017-11-21T10:17:13.153Z,44.45
2017-11-21T10:18:22.062Z,44.54
2017-11-21T10:19:32.210Z,44.35
2017-11-21T10:20:41.160Z,44.45
2017-11-21T10:21:50.327Z,44.35
2017-11-21T10:23:00.033Z,44.45
2017-11-21T10:24:09.491Z,44.73
2017-11-21T10:25:18.418Z,44.73
2017-11-21T10:26:27.353Z,44.93
2017-11-21T10:27:36.531Z,44.54
2017-11-21T10:28:45.271Z,44.73
2017-11-21T10:29:54.725Z,44.73
2017-11-21T10:31:04.446Z,44.73
2017-11-21T10:32:13.889Z,44.73
2017-11-21T10:33:23.329Z,44.64
2017-11-21T10:34:31.978Z,44.73
2017-11-21T10:35:41.156Z,44.93
2017-11-21T10:36:50.329Z,44.45
2017-11-21T10:37:59.253Z,45.12
2017-11-21T10:39:08.194Z,44.64
2017-11-21T10:40:17.647Z,44.93
2017-11-21T10:41:27.108Z,44.45
2017-11-21T10:42:35.761Z,44.73
2017-11-21T10:43:45.222Z,44.73
2017-11-21T10:44:54.402Z,44.54
2017-11-21T10:46:03.877Z,44.73
2017-11-21T10:47:13.057Z,44.93
2017-11-21T10:48:21.966Z,45.03
2017-11-21T10:49:30.887Z,44.83
2017-11-21T10:50:39.808Z,44.73
2017-11-21T10:51:48.518Z,45.03
2017-11-21T10:52:57.690Z,44.73
2017-11-21T10:54:07.425Z,44.83
2017-11-21T10:55:16.862Z,44.73
2017-11-21T10:56:25.515Z,44.64
2017-11-21T10:57:34.186Z,44.73
2017-11-21T10:58:42.838Z,44.73
2017-11-21T10:59:52.273Z,44.73
2017-11-21T11:01:01.968Z,44.93
2017-11-21T11:02:10.883Z,44.83
2017-11-21T11:03:19.794Z,44.83
2017-11-21T11:04:29.229Z,44.83
2017-11-21T11:05:38.196Z,45.03
2017-11-21T11:06:47.383Z,44.93
2017-11-21T11:07:56.299Z,45.03
2017-11-21T11:09:04.948Z,44.83
2017-11-21T11:10:14.134Z,44.83
2017-11-21T11:11:23.046Z,45.03
2017-11-21T11:12:31.983Z,45.03
2017-11-21T11:13:41.462Z,45.03
2017-11-21T11:14:50.394Z,45.03
2017-11-21T11:15:59.602Z,45.03
2017-11-21T11:17:08.785Z,45.03
2017-11-21T11:18:17.978Z,44.83
2017-11-21T11:19:26.618Z,44.83
2017-11-21T11:20:35.540Z,44.93
2017-11-21T11:21:44.466Z,44.93
2017-11-21T11:22:54.177Z,45.03
2017-11-21T11:24:03.125Z,44.83
2017-11-21T11:25:11.752Z,44.93
2017-11-21T11:26:20.668Z,45.03
2017-11-21T11:27:29.630Z,44.73
2017-11-21T11:28:38.844Z,44.93
2017-11-21T11:29:48.054Z,44.83
2017-11-21T11:30:56.717Z,45.03
2017-11-21T11:32:05.979Z,44.73
2017-11-21T11:33:14.933Z,45.03
2017-11-21T11:34:23.848Z,45.03
2017-11-21T11:35:33.049Z,44.83
2017-11-21T11:36:42.234Z,44.83
2017-11-21T11:37:51.413Z,44.93
2017-11-21T11:39:01.146Z,44.73
2017-11-21T11:40:10.063Z,44.93
2017-11-21T11:41:19.270Z,44.81
2017-11-21T11:42:28.738Z,44.93
2017-11-21T11:43:38.222Z,44.73
2017-11-21T11:44:47.415Z,44.93
2017-11-21T11:45:56.338Z,44.93
2017-11-21T11:47:05.789Z,44.93
2017-11-21T11:48:14.963Z,44.93
2017-11-21T11:49:24.155Z,44.83
2017-11-21T11:50:33.356Z,44.93
2017-11-21T11:51:42.280Z,44.93
2017-11-21T11:52:51.279Z,45
2017-11-21T11:54:00.460Z,44.93
2017-11-21T11:55:09.666Z,44.93
2017-11-21T11:56:18.882Z,44.93
2017-11-21T11:57:28.620Z,44.93
2017-11-21T11:58:37.825Z,44.93
2017-11-21T11:59:47.039Z,44.73
2017-11-21T12:00:56.260Z,44.73
2017-11-21T12:02:05.449Z,44.93
2017-11-21T12:03:14.403Z,44.73
2017-11-21T12:04:23.861Z,44.93
2017-11-21T12:05:33.350Z,44.93
2017-11-21T12:06:42.537Z,44.93
2017-11-21T12:07:51.735Z,44.83
2017-11-21T12:09:00.666Z,44.93
2017-11-21T12:10:10.126Z,44.83
2017-11-21T12:11:19.308Z,44.83
2017-11-21T12:12:28.488Z,45.03
2017-11-21T12:13:38.201Z,44.93
2017-11-21T12:14:47.123Z,45.03
2017-11-21T12:15:56.873Z,45.03
2017-11-21T12:17:06.040Z,44.83
2017-11-21T12:18:15.317Z,44.73
2017-11-21T12:19:24.267Z,44.93
2017-11-21T12:20:33.449Z,44.83
2017-11-21T12:21:43.195Z,44.83
2017-11-21T12:22:51.867Z,45
2017-11-21T12:24:01.315Z,44.93
2017-11-21T12:25:11.106Z,44.83
2017-11-21T12:26:20.295Z,44.83
2017-11-21T12:27:29.197Z,44.83
2017-11-21T12:28:38.929Z,44.83
2017-11-21T12:29:48.368Z,44.83
2017-11-21T12:30:57.545Z,44.83
2017-11-21T12:32:06.476Z,44.83
2017-11-21T12:33:15.401Z,45.03
2017-11-21T12:34:24.596Z,44.73
2017-11-21T12:35:33.784Z,44.83
2017-11-21T12:36:42.440Z,44.93
2017-11-21T12:37:51.891Z,45.12
2017-11-21T12:39:00.809Z,44.9
2017-11-21T12:40:10.005Z,45.03
2017-11-21T12:41:19.187Z,44.93
2017-11-21T12:42:28.389Z,44.64
2017-11-21T12:43:37.837Z,44.73
2017-11-21T12:44:47.284Z,44.83
2017-11-21T12:45:56.208Z,44.73
2017-11-21T12:47:05.388Z,44.73
2017-11-21T12:48:14.561Z,44.73
2017-11-21T12:49:23.204Z,44.9
2017-11-21T12:50:32.450Z,44.83
2017-11-21T12:51:41.918Z,44.73
2017-11-21T12:52:51.099Z,44.9
2017-11-21T12:54:00.273Z,44.93
2017-11-21T12:55:09.189Z,44.81
2017-11-21T12:56:18.101Z,44.81
2017-11-21T12:57:27.294Z,45
2017-11-21T12:58:36.477Z,44.81
2017-11-21T12:59:45.915Z,44.71
2017-11-21T13:00:55.387Z,44.93
2017-11-21T13:02:04.308Z,44.93
2017-11-21T13:03:13.496Z,44.73
2017-11-21T13:04:22.147Z,44.93
2017-11-21T13:05:31.321Z,44.9
2017-11-21T13:06:40.240Z,44.81
2017-11-21T13:07:49.180Z,44.83
2017-11-21T13:08:58.141Z,44.9
2017-11-21T13:10:07.316Z,44.93
2017-11-21T13:11:16.250Z,44.71
2017-11-21T13:12:25.178Z,44.9
2017-11-21T13:13:34.367Z,44.73
2017-11-21T13:14:43.545Z,44.9
2017-11-21T13:15:52.487Z,44.81
2017-11-21T13:17:01.414Z,44.62
2017-11-21T13:18:10.612Z,44.93
2017-11-21T13:19:19.546Z,44.83
2017-11-21T13:20:29.010Z,44.9
2017-11-21T13:21:38.474Z,44.83
2017-11-21T13:22:47.663Z,44.9
2017-11-21T13:23:56.605Z,44.9
2017-11-21T13:25:05.541Z,44.62
2017-11-21T13:26:14.762Z,44.71
2017-11-21T13:27:23.686Z,44.62
2017-11-21T13:28:32.902Z,44.52
2017-11-21T13:29:42.141Z,44.93
2017-11-21T13:30:51.364Z,44.73
2017-11-21T13:32:00.305Z,44.71
2017-11-21T13:33:09.220Z,44.62
2017-11-21T13:34:18.390Z,44.71
2017-11-21T13:35:27.312Z,44.71
2017-11-21T13:36:36.250Z,44.81
2017-11-21T13:37:45.191Z,44.71
2017-11-21T13:38:54.375Z,45.03
2017-11-21T13:40:03.562Z,45
2017-11-21T13:41:12.757Z,44.71
2017-11-21T13:42:21.425Z,45
2017-11-21T13:43:30.080Z,44.71
2017-11-21T13:44:39.013Z,44.62
2017-11-21T13:45:47.660Z,44.64
2017-11-21T13:46:56.861Z,44.54
2017-11-21T13:48:05.775Z,45
2017-11-21T13:49:14.961Z,44.93
2017-11-21T13:50:24.142Z,44.71
2017-11-21T13:51:33.080Z,44.81
2017-11-21T13:52:42.020Z,44.62
2017-11-21T13:53:51.215Z,44.93
2017-11-21T13:55:00.396Z,44.62
2017-11-21T13:56:09.853Z,44.71
2017-11-21T13:57:18.799Z,44.71
2017-11-21T13:58:28.021Z,44.62
2017-11-21T13:59:37.498Z,44.81
2017-11-21T14:00:46.711Z,44.9
2017-11-21T14:01:55.659Z,44.9
2017-11-21T14:03:05.107Z,44.71
2017-11-21T14:04:14.551Z,45.1
2017-11-21T14:05:23.737Z,44.9
2017-11-21T14:06:32.932Z,44.9
2017-11-21T14:07:42.389Z,44.71
2017-11-21T14:08:51.067Z,45.1
2017-11-21T14:10:00.531Z,45
2017-11-21T14:11:10.013Z,45
2017-11-21T14:12:19.194Z,45.1
2017-11-21T14:13:28.637Z,45
2017-11-21T14:14:37.829Z,45.1
2017-11-21T14:15:47.020Z,45.1
2017-11-21T14:16:55.951Z,45.2
2017-11-21T14:18:05.396Z,45
2017-11-21T14:19:14.574Z,45
2017-11-21T14:20:23.787Z,45
2017-11-21T14:21:32.704Z,45
2017-11-21T14:22:42.421Z,45.1
2017-11-21T14:23:51.661Z,45.1
2017-11-21T14:25:01.126Z,45.2
2017-11-21T14:26:10.846Z,45.1
2017-11-21T14:27:20.145Z,45
2017-11-21T14:28:29.090Z,45
2017-11-21T14:29:38.601Z,44.9
2017-11-21T14:30:47.788Z,45.39
2017-11-21T14:31:56.439Z,45.29
2017-11-21T14:33:05.627Z,45.29
2017-11-21T14:34:14.849Z,45
2017-11-21T14:35:24.577Z,45
2017-11-21T14:36:33.513Z,45.2
2017-11-21T14:37:42.723Z,45.2
2017-11-21T14:38:51.674Z,45.1
2017-11-21T14:40:01.130Z,45.1
2017-11-21T14:41:10.052Z,45.29
2017-11-21T14:42:19.494Z,45.1
2017-11-21T14:43:28.431Z,45.29
2017-11-21T14:44:37.361Z,45.39
2017-11-21T14:45:46.343Z,45.39
2017-11-21T14:46:55.580Z,45
2017-11-21T14:48:04.517Z,45.39
2017-11-21T14:49:13.173Z,45.39
2017-11-21T14:50:21.845Z,45.1
2017-11-21T14:51:31.286Z,45.1
2017-11-21T14:52:40.478Z,45.29
2017-11-21T14:53:49.945Z,45.1
2017-11-21T14:54:59.204Z,45.1
2017-11-21T14:56:08.697Z,45.29
2017-11-21T14:57:17.614Z,45.39